sensor_id;sensor_type;location;lat;lon;timestamp;pressure;altitude;pressure_sealevel;temperature;humidity
66887;BME280;67239;51.680;5.976;2023-05-18T00:02:11;102669.34;;;6.72;71.26
66887;BME280;67239;51.680;5.976;2023-05-18T00:05:00;102668.44;;;6.70;71.37
66887;BME280;67239;51.680;5.976;2023-05-18T00:07:46;102668.38;;;6.67;71.54
66887;BME280;67239;51.680;5.976;2023-05-18T00:10:31;102668.34;;;6.64;71.75
66887;BME280;67239;51.680;5.976;2023-05-18T00:13:17;102667.38;;;6.57;71.78
66887;BME280;67239;51.680;5.976;2023-05-18T00:16:02;102670.78;;;6.51;71.86
66887;BME280;67239;51.680;5.976;2023-05-18T00:18:47;102667.19;;;6.46;72.12
66887;BME280;67239;51.680;5.976;2023-05-18T00:21:32;102664.47;;;6.40;72.27
66887;BME280;67239;51.680;5.976;2023-05-18T00:24:19;102666.19;;;6.36;72.39
66887;BME280;67239;51.680;5.976;2023-05-18T00:27:04;102666.09;;;6.32;72.62
66887;BME280;67239;51.680;5.976;2023-05-18T00:29:50;102654.69;;;6.28;72.69
66887;BME280;67239;51.680;5.976;2023-05-18T00:32:36;102659.03;;;6.26;72.82
66887;BME280;67239;51.680;5.976;2023-05-18T00:35:21;102668.56;;;6.22;72.87
66887;BME280;67239;51.680;5.976;2023-05-18T00:38:06;102668.53;;;6.21;72.94
66887;BME280;67239;51.680;5.976;2023-05-18T00:40:52;102678.06;;;6.17;72.87
66887;BME280;67239;51.680;5.976;2023-05-18T00:43:41;102678.03;;;6.14;73.05
66887;BME280;67239;51.680;5.976;2023-05-18T00:46:27;102684.06;;;6.12;73.32
66887;BME280;67239;51.680;5.976;2023-05-18T00:49:12;102676.19;;;6.09;73.20
66887;BME280;67239;51.680;5.976;2023-05-18T00:51:58;102683.97;;;6.04;73.56
66887;BME280;67239;51.680;5.976;2023-05-18T00:54:43;102680.31;;;5.99;73.83
66887;BME280;67239;51.680;5.976;2023-05-18T00:57:29;102682.88;;;5.94;73.97
66887;BME280;67239;51.680;5.976;2023-05-18T01:00:16;102683.59;;;5.87;74.04
66887;BME280;67239;51.680;5.976;2023-05-18T01:03:03;102681.81;;;5.84;74.60
66887;BME280;67239;51.680;5.976;2023-05-18T01:05:48;102685.25;;;5.82;74.71
66887;BME280;67239;51.680;5.976;2023-05-18T01:08:35;102682.53;;;5.77;74.73
66887;BME280;67239;51.680;5.976;2023-05-18T01:18:04;102682.41;;;5.69;75.42
66887;BME280;67239;51.680;5.976;2023-05-18T01:20:59;102684.06;;;5.66;75.70
66887;BME280;67239;51.680;5.976;2023-05-18T01:24:23;102683.09;;;5.60;75.90
66887;BME280;67239;51.680;5.976;2023-05-18T01:27:16;102681.25;;;5.56;75.96
66887;BME280;67239;51.680;5.976;2023-05-18T01:30:03;102683.00;;;5.54;76.13
66887;BME280;67239;51.680;5.976;2023-05-18T01:32:49;102686.47;;;5.53;76.36
66887;BME280;67239;51.680;5.976;2023-05-18T01:35:36;102688.19;;;5.53;76.65
66887;BME280;67239;51.680;5.976;2023-05-18T01:38:23;102685.53;;;5.51;76.56
66887;BME280;67239;51.680;5.976;2023-05-18T01:41:17;102689.84;;;5.49;76.87
66887;BME280;67239;51.680;5.976;2023-05-18T01:50:04;102690.50;;;5.39;76.76
66887;BME280;67239;51.680;5.976;2023-05-18T01:53:11;102692.19;;;5.35;77.32
66887;BME280;67239;51.680;5.976;2023-05-18T01:56:05;102692.16;;;5.34;77.46
66887;BME280;67239;51.680;5.976;2023-05-18T01:58:52;102686.84;;;5.29;77.79
66887;BME280;67239;51.680;5.976;2023-05-18T02:01:38;102689.38;;;5.26;78.17
66887;BME280;67239;51.680;5.976;2023-05-18T02:04:23;102691.94;;;5.24;78.35
66887;BME280;67239;51.680;5.976;2023-05-18T02:07:09;102684.00;;;5.20;78.30
66887;BME280;67239;51.680;5.976;2023-05-18T02:09:54;102688.25;;;5.15;78.34
66887;BME280;67239;51.680;5.976;2023-05-18T02:12:40;102686.50;;;5.13;78.76
66887;BME280;67239;51.680;5.976;2023-05-18T02:15:27;102695.09;;;5.09;78.84
66887;BME280;67239;51.680;5.976;2023-05-18T02:18:13;102693.31;;;5.07;78.97
66887;BME280;67239;51.680;5.976;2023-05-18T02:20:59;102684.53;;;5.05;78.97
66887;BME280;67239;51.680;5.976;2023-05-18T02:23:44;102687.97;;;5.02;79.21
66887;BME280;67239;51.680;5.976;2023-05-18T02:26:31;102683.66;;;5.03;79.47
66887;BME280;67239;51.680;5.976;2023-05-18T02:29:16;102678.34;;;5.00;79.44
66887;BME280;67239;51.680;5.976;2023-05-18T02:32:02;102674.81;;;4.97;79.63
66887;BME280;67239;51.680;5.976;2023-05-18T02:34:51;102670.41;;;4.96;79.93
66887;BME280;67239;51.680;5.976;2023-05-18T02:37:37;102678.22;;;4.93;80.01
66887;BME280;67239;51.680;5.976;2023-05-18T02:40:28;102672.00;;;4.88;79.95
66887;BME280;67239;51.680;5.976;2023-05-18T02:43:13;102680.69;;;4.87;80.08
66887;BME280;67239;51.680;5.976;2023-05-18T02:45:59;102677.09;;;4.82;80.04
66887;BME280;67239;51.680;5.976;2023-05-18T02:48:45;102685.72;;;4.79;80.20
66887;BME280;67239;51.680;5.976;2023-05-18T02:51:30;102677.78;;;4.75;80.32
66887;BME280;67239;51.680;5.976;2023-05-18T02:54:17;102681.19;;;4.71;80.61
66887;BME280;67239;51.680;5.976;2023-05-18T02:57:02;102672.34;;;4.65;80.82
66887;BME280;67239;51.680;5.976;2023-05-18T03:00:00;102669.59;;;4.61;81.06
66887;BME280;67239;51.680;5.976;2023-05-18T03:02:45;102671.34;;;4.60;81.30
66887;BME280;67239;51.680;5.976;2023-05-18T03:05:32;102670.34;;;4.55;81.39
66887;BME280;67239;51.680;5.976;2023-05-18T03:08:21;102665.94;;;4.53;81.47
66887;BME280;67239;51.680;5.976;2023-05-18T03:11:11;102671.97;;;4.50;81.55
66887;BME280;67239;51.680;5.976;2023-05-18T03:13:57;102669.28;;;4.47;81.69
66887;BME280;67239;51.680;5.976;2023-05-18T03:16:42;102670.13;;;4.46;81.88
66887;BME280;67239;51.680;5.976;2023-05-18T03:19:31;102672.66;;;4.43;81.95
66887;BME280;67239;51.680;5.976;2023-05-18T03:22:19;102669.16;;;4.41;82.27
66887;BME280;67239;51.680;5.976;2023-05-18T03:25:05;102668.19;;;4.37;82.27
66887;BME280;67239;51.680;5.976;2023-05-18T03:27:52;102663.84;;;4.38;82.27
66887;BME280;67239;51.680;5.976;2023-05-18T03:30:37;102670.81;;;4.37;82.37
66887;BME280;67239;51.680;5.976;2023-05-18T03:33:23;102670.81;;;4.37;82.39
66887;BME280;67239;51.680;5.976;2023-05-18T03:36:09;102671.75;;;4.41;82.66
66887;BME280;67239;51.680;5.976;2023-05-18T03:38:54;102672.59;;;4.40;82.54
66887;BME280;67239;51.680;5.976;2023-05-18T03:41:40;102669.09;;;4.39;82.71
66887;BME280;67239;51.680;5.976;2023-05-18T03:44:26;102670.03;;;4.43;82.75
66887;BME280;67239;51.680;5.976;2023-05-18T03:47:12;102675.25;;;4.43;82.81
66887;BME280;67239;51.680;5.976;2023-05-18T03:49:58;102677.03;;;4.44;82.68
66887;BME280;67239;51.680;5.976;2023-05-18T03:52:44;102677.09;;;4.45;82.80
66887;BME280;67239;51.680;5.976;2023-05-18T03:55:30;102673.69;;;4.49;82.71
66887;BME280;67239;51.680;5.976;2023-05-18T03:58:16;102679.94;;;4.55;82.68
66887;BME280;67239;51.680;5.976;2023-05-18T04:01:04;102677.44;;;4.61;82.59
66887;BME280;67239;51.680;5.976;2023-05-18T04:03:49;102675.94;;;4.71;82.12
66887;BME280;67239;51.680;5.976;2023-05-18T04:06:35;102680.59;;;4.84;81.92
66887;BME280;67239;51.680;5.976;2023-05-18T04:09:21;102679.91;;;4.91;81.68
66887;BME280;67239;51.680;5.976;2023-05-18T04:12:08;102677.41;;;4.97;81.36
66887;BME280;67239;51.680;5.976;2023-05-18T04:14:56;102681.16;;;5.09;80.91
66887;BME280;67239;51.680;5.976;2023-05-18T04:17:43;102678.75;;;5.18;80.74
66887;BME280;67239;51.680;5.976;2023-05-18T04:20:30;102688.47;;;5.25;80.66
66887;BME280;67239;51.680;5.976;2023-05-18T04:23:15;102689.56;;;5.34;80.30
66887;BME280;67239;51.680;5.976;2023-05-18T04:26:01;102696.75;;;5.44;79.84
66887;BME280;67239;51.680;5.976;2023-05-18T04:28:46;102695.09;;;5.49;79.59
66887;BME280;67239;51.680;5.976;2023-05-18T04:31:31;102696.97;;;5.56;79.26
66887;BME280;67239;51.680;5.976;2023-05-18T04:34:18;102704.09;;;5.64;78.91
66887;BME280;67239;51.680;5.976;2023-05-18T04:37:07;102706.91;;;5.73;78.72
66887;BME280;67239;51.680;5.976;2023-05-18T04:39:54;102706.28;;;5.86;78.27
66887;BME280;67239;51.680;5.976;2023-05-18T04:42:40;102716.25;;;6.04;77.88
66887;BME280;67239;51.680;5.976;2023-05-18T04:45:30;102711.63;;;6.39;76.87
66887;BME280;67239;51.680;5.976;2023-05-18T04:48:17;102715.31;;;7.08;74.32
66887;BME280;67239;51.680;5.976;2023-05-18T04:51:04;102705.91;;;7.23;73.10
66887;BME280;67239;51.680;5.976;2023-05-18T04:53:50;102710.19;;;7.18;73.09
66887;BME280;67239;51.680;5.976;2023-05-18T04:56:41;102709.56;;;7.34;72.54
66887;BME280;67239;51.680;5.976;2023-05-18T04:59:33;102707.38;;;7.70;71.04
66887;BME280;67239;51.680;5.976;2023-05-18T05:02:21;102711.22;;;8.03;69.80
66887;BME280;67239;51.680;5.976;2023-05-18T05:05:09;102706.97;;;8.16;69.81
66887;BME280;67239;51.680;5.976;2023-05-18T05:07:54;102706.22;;;8.32;69.66
66887;BME280;67239;51.680;5.976;2023-05-18T05:10:41;102707.38;;;8.61;69.95
66887;BME280;67239;51.680;5.976;2023-05-18T05:13:26;102709.28;;;8.79;69.41
66887;BME280;67239;51.680;5.976;2023-05-18T05:16:12;102712.03;;;9.00;68.44
66887;BME280;67239;51.680;5.976;2023-05-18T05:18:57;102713.13;;;9.38;66.89
66887;BME280;67239;51.680;5.976;2023-05-18T05:21:42;102714.81;;;9.27;65.74
66887;BME280;67239;51.680;5.976;2023-05-18T05:24:29;102714.84;;;9.31;66.02
66887;BME280;67239;51.680;5.976;2023-05-18T05:27:14;102717.66;;;9.78;63.95
66887;BME280;67239;51.680;5.976;2023-05-18T05:30:00;102716.03;;;10.44;62.03
66887;BME280;67239;51.680;5.976;2023-05-18T05:32:45;102712.38;;;11.38;59.04
66887;BME280;67239;51.680;5.976;2023-05-18T05:35:30;102702.19;;;12.26;57.00
66887;BME280;67239;51.680;5.976;2023-05-18T05:38:18;102705.31;;;12.73;54.71
66887;BME280;67239;51.680;5.976;2023-05-18T05:41:04;102712.16;;;12.95;53.29
66887;BME280;67239;51.680;5.976;2023-05-18T05:43:51;102711.84;;;13.24;51.85
66887;BME280;67239;51.680;5.976;2023-05-18T05:46:36;102706.53;;;13.27;51.14
66887;BME280;67239;51.680;5.976;2023-05-18T05:49:22;102704.59;;;13.39;49.84
66887;BME280;67239;51.680;5.976;2023-05-18T05:52:08;102707.97;;;13.56;50.68
66887;BME280;67239;51.680;5.976;2023-05-18T05:54:54;102701.19;;;13.96;48.97
66887;BME280;67239;51.680;5.976;2023-05-18T05:57:39;102701.09;;;14.04;48.07
66887;BME280;67239;51.680;5.976;2023-05-18T06:00:27;102702.16;;;14.47;47.28
66887;BME280;67239;51.680;5.976;2023-05-18T06:03:17;102705.13;;;14.28;47.45
66887;BME280;67239;51.680;5.976;2023-05-18T06:06:04;102706.56;;;13.21;48.62
66887;BME280;67239;51.680;5.976;2023-05-18T06:08:50;102716.22;;;12.35;50.68
66887;BME280;67239;51.680;5.976;2023-05-18T06:11:38;102715.69;;;11.75;52.71
66887;BME280;67239;51.680;5.976;2023-05-18T06:14:26;102719.44;;;11.34;53.99
66887;BME280;67239;51.680;5.976;2023-05-18T06:17:14;102714.22;;;11.12;54.81
66887;BME280;67239;51.680;5.976;2023-05-18T06:20:00;102718.66;;;10.88;55.03
66887;BME280;67239;51.680;5.976;2023-05-18T06:22:46;102720.41;;;10.69;55.71
66887;BME280;67239;51.680;5.976;2023-05-18T06:25:48;102722.19;;;10.74;56.28
66887;BME280;67239;51.680;5.976;2023-05-18T06:28:45;102719.56;;;10.72;56.25
66887;BME280;67239;51.680;5.976;2023-05-18T06:32:00;102723.94;;;10.62;56.55
66887;BME280;67239;51.680;5.976;2023-05-18T06:34:53;102710.78;;;10.51;56.46
66887;BME280;67239;51.680;5.976;2023-05-18T06:37:38;102715.16;;;10.40;57.54
66887;BME280;67239;51.680;5.976;2023-05-18T06:40:24;102721.28;;;10.36;57.18
66887;BME280;67239;51.680;5.976;2023-05-18T06:43:09;102718.63;;;10.26;57.30
66887;BME280;67239;51.680;5.976;2023-05-18T06:46:02;102722.13;;;10.16;57.85
66887;BME280;67239;51.680;5.976;2023-05-18T06:48:57;102725.66;;;10.09;57.81
66887;BME280;67239;51.680;5.976;2023-05-18T06:51:43;102717.72;;;10.03;58.43
66887;BME280;67239;51.680;5.976;2023-05-18T06:54:30;102717.72;;;10.01;58.39
66887;BME280;67239;51.680;5.976;2023-05-18T06:57:17;102722.13;;;10.01;59.07
66887;BME280;67239;51.680;5.976;2023-05-18T07:00:03;102727.41;;;10.05;58.69
66887;BME280;67239;51.680;5.976;2023-05-18T07:02:51;102722.09;;;10.08;58.80
66887;BME280;67239;51.680;5.976;2023-05-18T07:05:36;102727.41;;;10.18;59.13
66887;BME280;67239;51.680;5.976;2023-05-18T07:08:23;102730.94;;;10.31;57.63
66887;BME280;67239;51.680;5.976;2023-05-18T07:11:09;102721.25;;;10.33;58.02
66887;BME280;67239;51.680;5.976;2023-05-18T07:13:55;102732.75;;;10.43;57.07
66887;BME280;67239;51.680;5.976;2023-05-18T07:16:40;102737.16;;;10.47;57.42
66887;BME280;67239;51.680;5.976;2023-05-18T07:19:28;102738.03;;;10.60;57.28
66887;BME280;67239;51.680;5.976;2023-05-18T07:22:13;102734.50;;;10.71;57.32
66887;BME280;67239;51.680;5.976;2023-05-18T07:24:58;102741.53;;;10.80;56.46
66887;BME280;67239;51.680;5.976;2023-05-18T07:27:44;102745.91;;;10.83;56.57
66887;BME280;67239;51.680;5.976;2023-05-18T07:30:30;102738.00;;;10.87;57.16
66887;BME280;67239;51.680;5.976;2023-05-18T07:33:16;102748.56;;;10.95;56.97
66887;BME280;67239;51.680;5.976;2023-05-18T07:36:01;102737.97;;;11.09;55.66
66887;BME280;67239;51.680;5.976;2023-05-18T07:38:46;102752.91;;;11.10;55.73
66887;BME280;67239;51.680;5.976;2023-05-18T07:41:37;102742.34;;;11.15;55.70
66887;BME280;67239;51.680;5.976;2023-05-18T07:44:22;102750.25;;;11.19;55.29
66887;BME280;67239;51.680;5.976;2023-05-18T07:47:08;102746.72;;;11.25;55.69
66887;BME280;67239;51.680;5.976;2023-05-18T07:49:54;102747.56;;;11.35;55.63
66887;BME280;67239;51.680;5.976;2023-05-18T07:52:40;102752.81;;;11.49;54.29
66887;BME280;67239;51.680;5.976;2023-05-18T07:55:25;102749.28;;;11.45;54.36
66887;BME280;67239;51.680;5.976;2023-05-18T07:58:11;102750.16;;;11.52;53.90
66887;BME280;67239;51.680;5.976;2023-05-18T08:00:57;102751.00;;;11.60;54.54
66887;BME280;67239;51.680;5.976;2023-05-18T08:03:42;102755.31;;;11.75;54.27
66887;BME280;67239;51.680;5.976;2023-05-18T08:06:28;102757.88;;;11.95;54.67
66887;BME280;67239;51.680;5.976;2023-05-18T08:09:14;102763.16;;;12.08;53.97
66887;BME280;67239;51.680;5.976;2023-05-18T08:11:59;102763.91;;;12.22;51.97
66887;BME280;67239;51.680;5.976;2023-05-18T08:14:45;102760.47;;;12.13;53.15
66887;BME280;67239;51.680;5.976;2023-05-18T08:17:30;102764.84;;;12.15;52.12
66887;BME280;67239;51.680;5.976;2023-05-18T08:20:15;102763.09;;;12.13;52.02
66887;BME280;67239;51.680;5.976;2023-05-18T08:23:01;102765.75;;;12.13;52.06
66887;BME280;67239;51.680;5.976;2023-05-18T08:25:46;102762.22;;;12.10;51.81
66887;BME280;67239;51.680;5.976;2023-05-18T08:28:31;102749.91;;;12.06;52.36
66887;BME280;67239;51.680;5.976;2023-05-18T08:31:17;102751.72;;;12.04;53.25
66887;BME280;67239;51.680;5.976;2023-05-18T08:34:03;102752.41;;;12.28;52.20
66887;BME280;67239;51.680;5.976;2023-05-18T08:36:49;102750.63;;;12.32;51.46
66887;BME280;67239;51.680;5.976;2023-05-18T08:39:36;102753.25;;;12.35;51.09
66887;BME280;67239;51.680;5.976;2023-05-18T08:42:28;102748.91;;;12.31;50.66
66887;BME280;67239;51.680;5.976;2023-05-18T08:48:32;102751.56;;;12.24;51.39
66887;BME280;67239;51.680;5.976;2023-05-18T08:51:19;102749.81;;;12.23;52.65
66887;BME280;67239;51.680;5.976;2023-05-18T08:54:07;102743.56;;;12.37;51.95
66887;BME280;67239;51.680;5.976;2023-05-18T08:56:55;102745.31;;;12.36;52.28
66887;BME280;67239;51.680;5.976;2023-05-18T08:59:43;102739.09;;;12.43;51.41
66887;BME280;67239;51.680;5.976;2023-05-18T09:02:31;102736.41;;;12.48;51.25
66887;BME280;67239;51.680;5.976;2023-05-18T09:05:18;102734.63;;;12.49;50.80
66887;BME280;67239;51.680;5.976;2023-05-18T09:08:05;102735.50;;;12.51;51.34
66887;BME280;67239;51.680;5.976;2023-05-18T09:10:55;102722.16;;;12.66;51.37
66887;BME280;67239;51.680;5.976;2023-05-18T09:13:43;102725.56;;;12.78;50.61
66887;BME280;67239;51.680;5.976;2023-05-18T09:16:28;102728.03;;;12.95;49.64
66887;BME280;67239;51.680;5.976;2023-05-18T09:19:14;102722.59;;;13.10;48.21
66887;BME280;67239;51.680;5.976;2023-05-18T09:22:00;102717.84;;;13.39;48.01
66887;BME280;67239;51.680;5.976;2023-05-18T09:24:46;102719.28;;;13.69;47.29
66887;BME280;67239;51.680;5.976;2023-05-18T09:27:33;102718.94;;;13.92;45.60
66887;BME280;67239;51.680;5.976;2023-05-18T09:30:18;102716.03;;;14.09;45.85
66887;BME280;67239;51.680;5.976;2023-05-18T09:33:03;102707.91;;;14.20;46.21
66887;BME280;67239;51.680;5.976;2023-05-18T09:35:50;102710.50;;;14.23;44.62
66887;BME280;67239;51.680;5.976;2023-05-18T09:38:41;102721.16;;;14.20;43.90
66887;BME280;67239;51.680;5.976;2023-05-18T09:41:29;102707.34;;;14.00;44.13
66887;BME280;67239;51.680;5.976;2023-05-18T09:44:15;102710.19;;;13.86;44.67
66887;BME280;67239;51.680;5.976;2023-05-18T09:47:07;102704.59;;;14.06;44.50
66887;BME280;67239;51.680;5.976;2023-05-18T09:49:56;102706.94;;;14.26;43.84
66887;BME280;67239;51.680;5.976;2023-05-18T09:52:43;102704.94;;;14.40;44.03
66887;BME280;67239;51.680;5.976;2023-05-18T09:55:29;102700.94;;;14.66;45.33
66887;BME280;67239;51.680;5.976;2023-05-18T09:58:15;102704.53;;;15.12;43.15
66887;BME280;67239;51.680;5.976;2023-05-18T10:01:02;102700.56;;;15.35;42.01
66887;BME280;67239;51.680;5.976;2023-05-18T10:03:48;102699.69;;;15.34;40.74
66887;BME280;67239;51.680;5.976;2023-05-18T10:06:34;102701.50;;;15.32;41.20
66887;BME280;67239;51.680;5.976;2023-05-18T10:09:20;102707.19;;;15.12;40.95
66887;BME280;67239;51.680;5.976;2023-05-18T10:12:16;102706.13;;;14.75;41.88
66887;BME280;67239;51.680;5.976;2023-05-18T10:15:08;102697.59;;;14.56;42.72
66887;BME280;67239;51.680;5.976;2023-05-18T10:17:55;102692.53;;;14.42;42.85
66887;BME280;67239;51.680;5.976;2023-05-18T10:20:42;102699.22;;;14.64;42.25
66887;BME280;67239;51.680;5.976;2023-05-18T10:23:39;102694.03;;;14.57;42.24
66887;BME280;67239;51.680;5.976;2023-05-18T10:26:26;102683.78;;;14.36;43.22
66887;BME280;67239;51.680;5.976;2023-05-18T10:29:15;102693.16;;;14.58;43.77
66887;BME280;67239;51.680;5.976;2023-05-18T10:32:02;102681.28;;;14.80;42.98
66887;BME280;67239;51.680;5.976;2023-05-18T10:34:52;102674.63;;;15.04;43.67
66887;BME280;67239;51.680;5.976;2023-05-18T10:37:42;102675.84;;;15.31;43.09
66887;BME280;67239;51.680;5.976;2023-05-18T10:40:33;102673.19;;;15.31;41.75
66887;BME280;67239;51.680;5.976;2023-05-18T10:43:22;102679.00;;;15.49;41.05
66887;BME280;67239;51.680;5.976;2023-05-18T10:46:12;102677.03;;;15.16;41.82
66887;BME280;67239;51.680;5.976;2023-05-18T10:49:02;102674.75;;;14.98;41.82
66887;BME280;67239;51.680;5.976;2023-05-18T10:51:52;102660.97;;;14.75;43.27
66887;BME280;67239;51.680;5.976;2023-05-18T10:54:41;102672.84;;;15.03;42.03
66887;BME280;67239;51.680;5.976;2023-05-18T10:57:32;102673.91;;;14.96;41.69
66887;BME280;67239;51.680;5.976;2023-05-18T11:00:22;102661.69;;;14.85;43.36
66887;BME280;67239;51.680;5.976;2023-05-18T11:03:09;102670.09;;;15.07;42.56
66887;BME280;67239;51.680;5.976;2023-05-18T11:06:04;102664.59;;;15.17;41.85
66887;BME280;67239;51.680;5.976;2023-05-18T11:08:57;102672.41;;;15.25;41.71
66887;BME280;67239;51.680;5.976;2023-05-18T11:11:54;102666.31;;;15.21;42.41
66887;BME280;67239;51.680;5.976;2023-05-18T11:14:49;102660.75;;;15.32;41.55
66887;BME280;67239;51.680;5.976;2023-05-18T11:17:37;102658.88;;;15.37;41.14
66887;BME280;67239;51.680;5.976;2023-05-18T11:20:24;102655.31;;;15.38;40.89
66887;BME280;67239;51.680;5.976;2023-05-18T11:23:10;102661.59;;;15.34;41.69
66887;BME280;67239;51.680;5.976;2023-05-18T11:25:59;102651.66;;;15.42;40.75
66887;BME280;67239;51.680;5.976;2023-05-18T11:28:51;102655.97;;;15.48;41.31
66887;BME280;67239;51.680;5.976;2023-05-18T11:31:44;102650.66;;;15.48;40.33
66887;BME280;67239;51.680;5.976;2023-05-18T11:34:44;102655.06;;;15.49;40.36
66887;BME280;67239;51.680;5.976;2023-05-18T11:40:46;102645.56;;;15.38;40.65
66887;BME280;67239;51.680;5.976;2023-05-18T11:43:32;102647.16;;;15.47;41.23
66887;BME280;67239;51.680;5.976;2023-05-18T11:46:19;102644.00;;;15.67;41.10
66887;BME280;67239;51.680;5.976;2023-05-18T11:49:06;102640.34;;;15.73;40.56
66887;BME280;67239;51.680;5.976;2023-05-18T11:54:58;102643.06;;;15.72;40.67
66887;BME280;67239;51.680;5.976;2023-05-18T11:57:47;102632.16;;;15.82;39.30
66887;BME280;67239;51.680;5.976;2023-05-18T12:00:37;102622.69;;;15.71;39.84
66887;BME280;67239;51.680;5.976;2023-05-18T12:03:24;102619.06;;;15.75;39.69
66887;BME280;67239;51.680;5.976;2023-05-18T12:06:15;102615.66;;;15.68;40.26
66887;BME280;67239;51.680;5.976;2023-05-18T12:09:00;102619.91;;;15.75;40.95
66887;BME280;67239;51.680;5.976;2023-05-18T12:11:49;102621.97;;;16.02;39.00
66887;BME280;67239;51.680;5.976;2023-05-18T12:14:35;102611.47;;;15.97;39.53
66887;BME280;67239;51.680;5.976;2023-05-18T12:17:38;102612.69;;;16.18;40.32
66887;BME280;67239;51.680;5.976;2023-05-18T12:20:28;102613.00;;;16.40;40.69
66887;BME280;67239;51.680;5.976;2023-05-18T12:23:14;102610.63;;;16.63;38.97
66887;BME280;67239;51.680;5.976;2023-05-18T12:26:00;102605.88;;;16.74;38.52
66887;BME280;67239;51.680;5.976;2023-05-18T12:28:45;102611.56;;;16.93;38.08
66887;BME280;67239;51.680;5.976;2023-05-18T12:31:31;102615.03;;;16.97;37.15
66887;BME280;67239;51.680;5.976;2023-05-18T12:34:17;102605.75;;;16.79;38.01
66887;BME280;67239;51.680;5.976;2023-05-18T12:37:03;102600.22;;;16.85;38.01
66887;BME280;67239;51.680;5.976;2023-05-18T12:39:51;102604.13;;;17.04;35.46
66887;BME280;67239;51.680;5.976;2023-05-18T12:42:38;102602.91;;;16.85;36.11
66887;BME280;67239;51.680;5.976;2023-05-18T12:45:25;102597.03;;;16.73;36.76
66887;BME280;67239;51.680;5.976;2023-05-18T12:48:12;102596.19;;;16.71;37.85
66887;BME280;67239;51.680;5.976;2023-05-18T12:50:59;102584.31;;;16.83;39.23
66887;BME280;67239;51.680;5.976;2023-05-18T12:53:47;102596.81;;;17.13;38.69
66887;BME280;67239;51.680;5.976;2023-05-18T12:56:53;102593.13;;;17.17;37.72
66887;BME280;67239;51.680;5.976;2023-05-18T12:59:47;102596.41;;;16.95;38.93
66887;BME280;67239;51.680;5.976;2023-05-18T13:02:36;102602.41;;;17.03;40.82
66887;BME280;67239;51.680;5.976;2023-05-18T13:05:23;102597.59;;;17.16;37.49
66887;BME280;67239;51.680;5.976;2023-05-18T13:08:16;102591.91;;;16.99;37.61
66887;BME280;67239;51.680;5.976;2023-05-18T13:11:07;102594.03;;;16.84;37.07
66887;BME280;67239;51.680;5.976;2023-05-18T13:14:08;102585.44;;;16.74;37.01
66887;BME280;67239;51.680;5.976;2023-05-18T13:16:54;102582.31;;;16.60;37.75
66887;BME280;67239;51.680;5.976;2023-05-18T13:19:42;102583.81;;;16.69;38.47
66887;BME280;67239;51.680;5.976;2023-05-18T13:22:27;102584.56;;;16.74;37.67
66887;BME280;67239;51.680;5.976;2023-05-18T13:25:13;102584.75;;;16.68;37.93
66887;BME280;67239;51.680;5.976;2023-05-18T13:27:58;102580.34;;;16.67;38.38
66887;BME280;67239;51.680;5.976;2023-05-18T13:30:44;102580.22;;;16.71;37.40
66887;BME280;67239;51.680;5.976;2023-05-18T13:33:31;102569.00;;;16.60;37.67
66887;BME280;67239;51.680;5.976;2023-05-18T13:36:17;102571.78;;;16.55;37.40
66887;BME280;67239;51.680;5.976;2023-05-18T13:39:03;102571.81;;;16.54;37.05
66887;BME280;67239;51.680;5.976;2023-05-18T13:41:51;102557.78;;;16.49;37.22
66887;BME280;67239;51.680;5.976;2023-05-18T13:44:37;102567.31;;;16.57;37.67
66887;BME280;67239;51.680;5.976;2023-05-18T13:47:22;102564.53;;;16.60;37.33
66887;BME280;67239;51.680;5.976;2023-05-18T13:50:08;102555.59;;;16.63;37.35
66887;BME280;67239;51.680;5.976;2023-05-18T13:52:57;102548.97;;;16.78;37.59
66887;BME280;67239;51.680;5.976;2023-05-18T13:55:43;102539.25;;;17.07;36.37
66887;BME280;67239;51.680;5.976;2023-05-18T13:58:28;102541.78;;;17.12;36.59
66887;BME280;67239;51.680;5.976;2023-05-18T14:01:14;102534.41;;;17.20;37.30
66887;BME280;67239;51.680;5.976;2023-05-18T14:04:04;102532.06;;;17.37;35.99
66887;BME280;67239;51.680;5.976;2023-05-18T14:06:50;102532.75;;;17.44;36.19
66887;BME280;67239;51.680;5.976;2023-05-18T14:09:38;102528.78;;;17.56;34.14
66887;BME280;67239;51.680;5.976;2023-05-18T14:12:23;102525.56;;;17.46;35.10
66887;BME280;67239;51.680;5.976;2023-05-18T14:15:10;102522.03;;;17.46;35.26
66887;BME280;67239;51.680;5.976;2023-05-18T14:17:57;102520.91;;;17.53;35.52
66887;BME280;67239;51.680;5.976;2023-05-18T14:20:43;102518.25;;;17.53;34.78
66887;BME280;67239;51.680;5.976;2023-05-18T14:23:28;102516.25;;;17.60;35.51
66887;BME280;67239;51.680;5.976;2023-05-18T14:26:14;102511.59;;;17.92;33.66
66887;BME280;67239;51.680;5.976;2023-05-18T14:28:59;102512.66;;;17.88;33.70
66887;BME280;67239;51.680;5.976;2023-05-18T14:31:45;102512.47;;;17.92;34.22
66887;BME280;67239;51.680;5.976;2023-05-18T14:34:30;102505.75;;;18.07;33.44
66887;BME280;67239;51.680;5.976;2023-05-18T14:37:16;102512.09;;;18.05;33.40
66887;BME280;67239;51.680;5.976;2023-05-18T14:40:03;102515.13;;;18.19;33.23
66887;BME280;67239;51.680;5.976;2023-05-18T14:42:49;102514.91;;;18.00;33.21
66887;BME280;67239;51.680;5.976;2023-05-18T14:45:38;102517.41;;;17.78;33.97
66887;BME280;67239;51.680;5.976;2023-05-18T14:48:23;102521.22;;;17.70;34.31
66887;BME280;67239;51.680;5.976;2023-05-18T14:51:09;102514.38;;;17.62;34.12
66887;BME280;67239;51.680;5.976;2023-05-18T14:53:55;102518.88;;;17.61;34.27
66887;BME280;67239;51.680;5.976;2023-05-18T14:56:40;102510.34;;;17.50;33.65
66887;BME280;67239;51.680;5.976;2023-05-18T14:59:25;102514.44;;;17.33;34.56
66887;BME280;67239;51.680;5.976;2023-05-18T15:02:17;102499.38;;;17.32;34.53